createdAt,value
2019-03-09T00:00:42.785Z,1.55
2019-03-09T00:03:12.823Z,2.60
2019-03-09T00:05:41.237Z,1.30
2019-03-09T00:08:09.668Z,1.90
2019-03-09T00:10:38.087Z,1.60
2019-03-09T00:13:07.033Z,2.10
2019-03-09T00:15:35.511Z,2.08
2019-03-09T00:18:04.003Z,3.70
2019-03-09T00:20:32.442Z,2.85
2019-03-09T00:23:20.509Z,2.05
2019-03-09T00:26:09.083Z,2.20
2019-03-09T00:28:45.313Z,2.10
2019-03-09T00:31:18.712Z,1.72
2019-03-09T00:33:47.133Z,1.85
2019-03-09T00:36:15.570Z,1.45
2019-03-09T00:38:44.005Z,2.58
2019-03-09T00:41:12.430Z,2.60
2019-03-09T00:43:40.869Z,1.50
2019-03-09T00:46:09.299Z,1.30
2019-03-09T00:48:37.721Z,3.02
2019-03-09T00:51:06.156Z,2.27
2019-03-09T00:53:34.864Z,2.62
2019-03-09T00:56:03.290Z,3.02
2019-03-09T00:58:31.774Z,1.77
2019-03-09T01:01:00.205Z,2.25
2019-03-09T01:03:28.634Z,2.27
2019-03-09T01:05:57.080Z,4.65
2019-03-09T01:08:26.775Z,3.92
2019-03-09T01:10:55.199Z,3.98
2019-03-09T01:13:23.622Z,2.92
2019-03-09T01:15:52.065Z,4.92
2019-03-09T01:18:20.486Z,2.37
2019-03-09T01:20:48.920Z,3.02
2019-03-09T01:23:18.617Z,6.62
2019-03-09T01:25:47.065Z,3.05
2019-03-09T01:28:15.559Z,4.25
2019-03-09T01:30:43.986Z,7.35
2019-03-09T01:33:12.421Z,7.10
2019-03-09T01:35:40.866Z,5.92
2019-03-09T01:38:09.303Z,6.33
2019-03-09T01:40:37.724Z,6.92
2019-03-09T01:43:06.178Z,3.52
2019-03-09T01:45:34.600Z,6.37
2019-03-09T01:48:03.157Z,6.30
2019-03-09T01:50:32.561Z,3.33
2019-03-09T01:53:00.978Z,5.80
2019-03-09T01:55:29.405Z,3.98
2019-03-09T01:57:57.824Z,4.65
2019-03-09T02:00:26.261Z,3.40
2019-03-09T02:02:54.685Z,5.17
2019-03-09T02:05:23.105Z,5.20
2019-03-09T02:07:51.541Z,5.28
2019-03-09T02:10:19.986Z,4.62
2019-03-09T02:12:48.405Z,5.28
2019-03-09T02:15:16.902Z,3.72
2019-03-09T02:17:45.340Z,5.28
2019-03-09T02:20:14.837Z,3.55
2019-03-09T02:22:43.273Z,3.02
2019-03-09T02:25:12.266Z,4.50
2019-03-09T02:27:40.697Z,5.17
2019-03-09T02:30:12.964Z,4.15
2019-03-09T02:32:41.442Z,3.27
2019-03-09T02:35:10.659Z,4.30
2019-03-09T02:37:39.158Z,4.80
2019-03-09T02:40:10.559Z,3.52
2019-03-09T02:45:08.017Z,4.50
2019-03-09T02:47:36.449Z,4.33
2019-03-09T02:50:06.414Z,5.37
2019-03-09T02:52:34.835Z,4.75
2019-03-09T02:55:04.140Z,4.53
2019-03-09T02:57:32.557Z,5.50
2019-03-09T03:00:01.423Z,4.80
2019-03-09T03:02:36.752Z,5.25
2019-03-09T03:05:05.902Z,5.60
2019-03-09T03:07:34.331Z,5.00
2019-03-09T03:10:02.753Z,4.00
2019-03-09T03:12:32.466Z,3.52
2019-03-09T03:15:00.899Z,5.22
2019-03-09T03:17:29.405Z,4.60
2019-03-09T03:19:57.823Z,3.65
2019-03-09T03:22:26.253Z,5.90
2019-03-09T03:24:54.677Z,4.08
2019-03-09T03:27:23.107Z,4.95
2019-03-09T03:29:51.518Z,4.17
2019-03-09T03:32:19.975Z,4.10
2019-03-09T03:34:48.455Z,5.10
2019-03-09T03:37:16.887Z,5.35
2019-03-09T03:39:45.312Z,5.37
2019-03-09T03:42:13.742Z,3.90
2019-03-09T03:44:44.890Z,4.10
2019-03-09T03:47:13.383Z,4.28
2019-03-09T03:49:41.928Z,4.65
2019-03-09T03:52:10.387Z,3.37
2019-03-09T03:54:38.820Z,3.83
2019-03-09T03:57:07.246Z,3.45
2019-03-09T03:59:35.687Z,4.72
2019-03-09T04:02:04.164Z,4.20
2019-03-09T04:04:32.670Z,4.25
2019-03-09T04:07:01.191Z,4.35
2019-03-09T04:09:29.694Z,3.72
2019-03-09T04:11:58.207Z,4.17
2019-03-09T04:14:26.641Z,3.77
2019-03-09T04:16:55.099Z,3.62
2019-03-09T04:19:23.582Z,3.17
2019-03-09T04:21:52.022Z,3.12
2019-03-09T04:24:20.530Z,3.08
2019-03-09T04:26:48.966Z,5.10
2019-03-09T04:29:17.811Z,2.72
2019-03-09T04:31:46.309Z,2.33
2019-03-09T04:34:14.743Z,3.75
2019-03-09T04:36:43.182Z,2.98
2019-03-09T04:39:11.620Z,3.40
2019-03-09T04:41:40.059Z,2.72
2019-03-09T04:44:08.498Z,2.37
2019-03-09T04:46:36.939Z,2.55
2019-03-09T04:49:05.361Z,2.83
2019-03-09T04:51:33.793Z,2.10
2019-03-09T04:54:02.226Z,2.60
2019-03-09T04:56:30.658Z,2.20
2019-03-09T04:58:59.099Z,1.85
2019-03-09T05:01:27.519Z,2.52
2019-03-09T05:04:14.201Z,3.65
2019-03-09T05:06:42.638Z,2.15
2019-03-09T05:09:12.602Z,2.10
2019-03-09T05:11:41.033Z,1.85
2019-03-09T05:14:09.470Z,2.70
2019-03-09T05:16:37.917Z,2.52
2019-03-09T05:19:06.336Z,2.10
2019-03-09T05:21:34.761Z,2.22
2019-03-09T05:24:03.203Z,2.20
2019-03-09T05:26:31.629Z,2.20
2019-03-09T05:29:00.057Z,2.20
2019-03-09T05:31:29.449Z,2.05
2019-03-09T05:33:57.889Z,2.58
2019-03-09T05:36:26.323Z,1.80
2019-03-09T05:38:54.737Z,2.45
2019-03-09T05:41:23.169Z,3.00
2019-03-09T05:43:51.615Z,2.33
2019-03-09T05:46:20.117Z,2.10
2019-03-09T05:48:48.841Z,2.55
2019-03-09T05:51:17.303Z,2.58
2019-03-09T05:53:45.721Z,2.40
2019-03-09T05:56:14.152Z,1.45
2019-03-09T05:58:42.582Z,2.12
2019-03-09T06:01:11.010Z,1.92
2019-03-09T06:03:39.445Z,2.70
2019-03-09T06:06:07.933Z,2.15
2019-03-09T06:08:36.370Z,2.70
2019-03-09T06:11:04.801Z,1.80
2019-03-09T06:13:33.253Z,1.70
2019-03-09T06:16:01.685Z,1.70
2019-03-09T06:18:30.118Z,1.87
2019-03-09T06:20:58.544Z,1.37
2019-03-09T06:23:26.976Z,2.72
2019-03-09T06:25:55.420Z,1.25
2019-03-09T06:28:24.032Z,1.85
2019-03-09T06:30:52.468Z,1.67
2019-03-09T06:33:24.711Z,1.40
2019-03-09T06:35:54.905Z,1.82
2019-03-09T06:38:30.756Z,2.50
2019-03-09T06:41:02.855Z,2.12
2019-03-09T06:43:29.333Z,2.27
2019-03-09T06:45:57.754Z,2.50
2019-03-09T06:48:26.172Z,1.35
2019-03-09T06:50:54.677Z,2.80
2019-03-09T06:53:23.103Z,1.67
2019-03-09T06:55:51.532Z,2.55
2019-03-09T06:58:19.970Z,3.87
2019-03-09T07:00:48.405Z,3.75
2019-03-09T07:03:16.987Z,3.47
2019-03-09T07:05:45.403Z,2.40
2019-03-09T07:08:13.834Z,3.77
2019-03-09T07:10:42.327Z,4.03
2019-03-09T07:13:10.751Z,2.62
2019-03-09T07:15:40.046Z,5.25
2019-03-09T07:18:09.941Z,6.25
2019-03-09T07:20:38.382Z,5.05
2019-03-09T07:23:06.805Z,4.05
2019-03-09T07:25:35.246Z,3.30
2019-03-09T07:28:05.206Z,4.80
2019-03-09T07:30:33.642Z,6.08
2019-03-09T07:33:02.077Z,3.67
2019-03-09T07:35:30.577Z,4.72
2019-03-09T07:37:59.073Z,3.47
2019-03-09T07:40:27.506Z,4.62
2019-03-09T07:42:55.929Z,4.17
2019-03-09T07:45:24.362Z,4.20
2019-03-09T07:47:52.789Z,4.92
2019-03-09T07:50:21.242Z,6.50
2019-03-09T07:52:49.663Z,3.75
2019-03-09T07:55:19.625Z,3.22
2019-03-09T07:57:48.046Z,4.92
2019-03-09T08:00:20.374Z,3.90
2019-03-09T08:02:49.266Z,4.00
2019-03-09T08:05:17.774Z,3.77
2019-03-09T08:07:46.185Z,2.98
2019-03-09T08:10:18.471Z,3.47
2019-03-09T08:12:46.906Z,4.25
2019-03-09T08:15:16.413Z,3.20
2019-03-09T08:17:44.975Z,2.27
2019-03-09T08:20:14.944Z,3.60
2019-03-09T08:22:43.394Z,4.00
2019-03-09T08:25:12.782Z,2.02
2019-03-09T08:27:41.213Z,3.08
2019-03-09T08:30:13.987Z,2.62
2019-03-09T08:32:42.418Z,2.80
2019-03-09T08:35:11.118Z,3.00
2019-03-09T08:37:39.557Z,2.40
2019-03-09T08:40:09.462Z,3.37
2019-03-09T08:42:37.917Z,2.80
2019-03-09T08:45:07.963Z,3.17
2019-03-09T08:47:36.483Z,92.22
2019-03-09T08:50:06.805Z,50.75
2019-03-09T08:52:35.246Z,52.15
2019-03-09T08:55:04.979Z,25.80
2019-03-09T08:57:33.466Z,22.77
2019-03-09T09:00:01.983Z,19.35
2019-03-09T09:02:30.808Z,16.20
2019-03-09T09:04:59.221Z,12.43
2019-03-09T09:07:27.657Z,9.03
2019-03-09T09:09:56.104Z,7.78
2019-03-09T09:12:24.552Z,6.55
2019-03-09T09:14:52.973Z,5.50
2019-03-09T09:17:21.406Z,5.92
2019-03-09T09:19:49.854Z,4.95
2019-03-09T09:22:18.280Z,5.97
2019-03-09T09:24:46.714Z,4.08
2019-03-09T09:27:15.138Z,4.25
2019-03-09T09:29:43.897Z,3.90
2019-03-09T09:32:12.313Z,2.40
2019-03-09T09:34:40.759Z,3.90
2019-03-09T09:37:09.181Z,4.47
2019-03-09T09:39:37.619Z,3.37
2019-03-09T09:42:06.059Z,3.58
2019-03-09T09:44:34.498Z,2.60
2019-03-09T09:47:02.931Z,4.25
2019-03-09T09:49:31.360Z,1.67
2019-03-09T09:51:59.803Z,4.12
2019-03-09T09:54:28.233Z,2.55
2019-03-09T09:56:56.657Z,2.45
2019-03-09T09:59:25.097Z,2.98
2019-03-09T10:01:53.526Z,2.77
2019-03-09T10:04:21.959Z,4.03
2019-03-09T10:06:50.413Z,4.10
2019-03-09T10:09:18.834Z,4.40
2019-03-09T10:11:47.269Z,4.28
2019-03-09T10:14:15.700Z,3.15
2019-03-09T10:16:44.133Z,2.60
2019-03-09T10:19:12.564Z,4.95
2019-03-09T10:21:40.993Z,4.10
2019-03-09T10:24:09.438Z,4.53
2019-03-09T10:26:37.867Z,4.70
2019-03-09T10:29:06.298Z,3.87
2019-03-09T10:31:34.821Z,4.28
2019-03-09T10:34:03.254Z,4.20
2019-03-09T10:36:31.692Z,2.90
2019-03-09T10:39:00.114Z,4.62
2019-03-09T10:41:28.550Z,2.87
2019-03-09T10:43:56.973Z,3.22
2019-03-09T10:46:25.400Z,3.05
2019-03-09T10:48:53.901Z,3.42
2019-03-09T10:51:22.330Z,3.70
2019-03-09T10:53:50.770Z,2.87
2019-03-09T10:56:20.460Z,4.37
2019-03-09T10:58:48.893Z,4.70
2019-03-09T11:01:17.332Z,4.47
2019-03-09T11:03:45.893Z,5.22
2019-03-09T11:06:14.340Z,4.05
2019-03-09T11:08:42.761Z,3.52
2019-03-09T11:11:11.197Z,4.03
2019-03-09T11:13:39.621Z,4.80
2019-03-09T11:16:08.053Z,4.60
2019-03-09T11:18:37.663Z,4.53
2019-03-09T11:21:06.081Z,3.87
2019-03-09T11:23:34.644Z,4.53
2019-03-09T11:26:03.229Z,5.50
2019-03-09T11:28:31.675Z,4.45
2019-03-09T11:31:01.068Z,5.53
2019-03-09T11:33:29.497Z,6.62
2019-03-09T11:35:57.946Z,6.58
2019-03-09T11:38:26.435Z,6.83
2019-03-09T11:40:58.605Z,4.72
2019-03-09T11:43:26.076Z,6.87
2019-03-09T11:45:54.512Z,4.95
2019-03-09T11:48:22.948Z,5.35
2019-03-09T11:50:51.372Z,4.75
2019-03-09T11:53:19.812Z,5.60
2019-03-09T11:55:48.241Z,5.45
2019-03-09T11:58:16.686Z,4.85
2019-03-09T12:00:46.958Z,4.70
2019-03-09T12:03:15.396Z,5.03
2019-03-09T12:05:43.826Z,4.47
2019-03-09T12:08:12.250Z,4.58
2019-03-09T12:10:40.689Z,4.10
2019-03-09T12:13:10.576Z,4.67
2019-03-09T12:15:39.008Z,5.15
2019-03-09T12:18:08.613Z,5.85
2019-03-09T12:20:37.042Z,5.58
2019-03-09T12:23:22.418Z,5.40
2019-03-09T12:25:52.108Z,4.72
2019-03-09T12:28:20.637Z,5.83
2019-03-09T12:30:49.077Z,5.17
2019-03-09T12:33:17.540Z,4.80
2019-03-09T12:35:45.978Z,4.97
2019-03-09T12:38:14.396Z,4.92
2019-03-09T12:40:42.844Z,4.90
2019-03-09T12:43:11.265Z,5.53
2019-03-09T12:45:39.697Z,5.85
2019-03-09T12:48:08.138Z,4.33
2019-03-09T12:50:36.570Z,4.97
2019-03-09T12:53:05.006Z,6.37
2019-03-09T12:55:33.450Z,5.70
2019-03-09T12:58:01.878Z,5.85
2019-03-09T13:00:30.315Z,5.58
2019-03-09T13:02:58.817Z,4.70
2019-03-09T13:05:27.243Z,4.60
2019-03-09T13:07:55.678Z,6.75
2019-03-09T13:10:24.181Z,4.83
2019-03-09T13:12:52.744Z,5.42
2019-03-09T13:15:21.187Z,4.33
2019-03-09T13:17:49.617Z,3.17
2019-03-09T13:20:18.039Z,5.03
2019-03-09T13:22:46.534Z,3.60
2019-03-09T13:25:14.963Z,5.20
2019-03-09T13:27:44.670Z,3.17
2019-03-09T13:30:14.460Z,4.60
2019-03-09T13:32:42.893Z,2.22
2019-03-09T13:35:11.321Z,5.35
2019-03-09T13:37:39.761Z,3.77
2019-03-09T13:40:09.171Z,5.45
2019-03-09T13:42:37.597Z,3.58
2019-03-09T13:45:10.070Z,3.37
2019-03-09T13:47:38.498Z,4.17
2019-03-09T13:50:08.297Z,5.28
2019-03-09T13:52:36.803Z,4.83
2019-03-09T13:55:06.205Z,4.25
2019-03-09T13:57:34.641Z,4.20
2019-03-09T14:00:05.576Z,3.90
2019-03-09T14:02:34.017Z,3.52
2019-03-09T14:05:02.458Z,4.33
2019-03-09T14:07:31.005Z,5.42
2019-03-09T14:09:59.470Z,4.70
2019-03-09T14:12:27.910Z,3.75
2019-03-09T14:14:56.370Z,5.50
2019-03-09T14:17:24.804Z,3.58
2019-03-09T14:19:53.257Z,3.12
2019-03-09T14:22:21.694Z,3.45
2019-03-09T14:24:50.117Z,3.00
2019-03-09T14:27:18.559Z,4.45
2019-03-09T14:29:46.996Z,2.67
2019-03-09T14:32:16.605Z,1.85
2019-03-09T14:34:45.032Z,1.57
2019-03-09T14:37:13.465Z,2.12
2019-03-09T14:39:41.910Z,2.00
2019-03-09T14:42:10.341Z,2.17
2019-03-09T14:44:39.054Z,3.05
2019-03-09T14:47:07.508Z,3.45
2019-03-09T14:49:35.945Z,2.58
2019-03-09T14:52:04.368Z,4.25
2019-03-09T14:54:32.817Z,3.90
2019-03-09T14:57:01.243Z,3.02
2019-03-09T14:59:29.691Z,3.10
2019-03-09T15:01:58.122Z,3.92
2019-03-09T15:04:26.563Z,3.90
2019-03-09T15:06:55.075Z,3.12
2019-03-09T15:09:23.505Z,3.85
2019-03-09T15:11:51.941Z,3.40
2019-03-09T15:14:20.405Z,2.77
2019-03-09T15:16:52.355Z,3.15
2019-03-09T15:19:20.804Z,2.30
2019-03-09T15:21:49.238Z,2.08
2019-03-09T15:24:17.664Z,2.15
2019-03-09T15:26:46.089Z,1.75
2019-03-09T15:29:15.692Z,1.72
2019-03-09T15:31:44.128Z,2.27
2019-03-09T15:34:12.561Z,1.77
2019-03-09T15:36:40.989Z,2.40
2019-03-09T15:39:10.085Z,2.17
2019-03-09T15:41:39.482Z,1.35
2019-03-09T15:44:07.902Z,1.80
2019-03-09T15:46:36.338Z,1.62
2019-03-09T15:49:04.829Z,2.22
2019-03-09T15:51:33.259Z,1.57
2019-03-09T15:54:01.698Z,1.90
2019-03-09T15:56:30.205Z,1.52
2019-03-09T15:58:58.666Z,2.37
2019-03-09T16:01:27.176Z,1.65
2019-03-09T16:03:55.620Z,1.62
2019-03-09T16:06:24.129Z,2.35
2019-03-09T16:08:53.725Z,1.40
2019-03-09T16:11:22.162Z,2.33
2019-03-09T16:13:50.602Z,2.12
2019-03-09T16:16:19.034Z,2.00
2019-03-09T16:18:47.471Z,2.35
2019-03-09T16:21:15.904Z,2.25
2019-03-09T16:23:44.342Z,2.17
2019-03-09T16:26:12.777Z,1.77
2019-03-09T16:28:41.197Z,2.62
2019-03-09T16:31:09.636Z,3.22
2019-03-09T16:33:38.054Z,2.85
2019-03-09T16:36:06.505Z,3.98
2019-03-09T16:38:34.937Z,2.52
2019-03-09T16:41:03.612Z,2.85
2019-03-09T16:43:32.113Z,2.85
2019-03-09T16:46:00.533Z,2.77
2019-03-09T16:48:28.966Z,2.20
2019-03-09T16:50:57.389Z,2.40
2019-03-09T16:53:25.831Z,3.12
2019-03-09T16:55:54.283Z,2.35
2019-03-09T16:58:22.701Z,2.42
2019-03-09T17:00:51.210Z,2.75
2019-03-09T17:03:19.970Z,2.22
2019-03-09T17:05:48.401Z,1.85
2019-03-09T17:08:16.829Z,2.05
2019-03-09T17:10:45.255Z,1.87
2019-03-09T17:13:15.129Z,1.82
2019-03-09T17:15:43.694Z,1.90
2019-03-09T17:18:12.117Z,2.00
2019-03-09T17:20:40.534Z,1.75
2019-03-09T17:23:10.341Z,2.33
2019-03-09T17:25:39.823Z,2.17
2019-03-09T17:28:08.584Z,1.72
2019-03-09T17:30:37.916Z,1.95
2019-03-09T17:33:06.411Z,2.27
2019-03-09T17:35:34.845Z,2.92
2019-03-09T17:38:03.289Z,3.42
2019-03-09T17:40:31.806Z,3.27
2019-03-09T17:43:00.237Z,4.12
2019-03-09T17:45:28.733Z,4.33
2019-03-09T17:47:57.162Z,3.95
2019-03-09T17:50:25.592Z,4.78
2019-03-09T17:52:54.034Z,3.85
2019-03-09T17:55:22.680Z,3.20
2019-03-09T17:57:53.686Z,3.58
2019-03-09T18:00:23.941Z,2.90
2019-03-09T18:02:52.702Z,3.20
2019-03-09T18:05:21.184Z,2.92
2019-03-09T18:07:49.609Z,4.12
2019-03-09T18:10:36.125Z,3.77
2019-03-09T18:13:04.557Z,3.37
2019-03-09T18:15:32.997Z,3.20
2019-03-09T18:18:01.443Z,3.37
2019-03-09T18:20:29.872Z,3.35
2019-03-09T18:22:58.318Z,4.00
2019-03-09T18:25:26.737Z,2.80
2019-03-09T18:27:55.190Z,3.05
2019-03-09T18:30:23.625Z,2.85
2019-03-09T18:32:52.063Z,2.70
2019-03-09T18:35:20.492Z,2.60
2019-03-09T18:37:48.926Z,2.62
2019-03-09T18:40:17.353Z,2.90
2019-03-09T18:42:45.862Z,2.70
2019-03-09T18:45:18.269Z,3.12
2019-03-09T18:47:46.707Z,3.05
2019-03-09T18:50:15.138Z,2.47
2019-03-09T18:52:43.567Z,3.40
2019-03-09T18:55:12.483Z,2.25
2019-03-09T18:57:40.942Z,2.83
2019-03-09T19:00:11.046Z,2.37
2019-03-09T19:02:39.571Z,2.70
2019-03-09T19:05:08.369Z,3.42
2019-03-09T19:07:36.810Z,2.10
2019-03-09T19:10:12.504Z,2.90
2019-03-09T19:12:40.925Z,2.10
2019-03-09T19:15:11.133Z,3.58
2019-03-09T19:17:39.637Z,2.98
2019-03-09T19:20:09.761Z,3.05
2019-03-09T19:22:38.248Z,3.05
2019-03-09T19:25:08.040Z,3.60
2019-03-09T19:27:36.482Z,2.75
2019-03-09T19:30:18.573Z,3.10
2019-03-09T19:32:47.020Z,3.10
2019-03-09T19:35:15.454Z,2.77
2019-03-09T19:37:43.905Z,2.95
2019-03-09T19:40:13.408Z,3.75
2019-03-09T19:42:41.829Z,2.62
2019-03-09T19:45:11.813Z,3.75
2019-03-09T19:47:40.234Z,3.40
2019-03-09T19:50:13.249Z,3.40
2019-03-09T19:52:42.772Z,3.45
2019-03-09T19:55:11.310Z,3.52
2019-03-09T19:57:39.754Z,4.05
2019-03-09T20:00:12.341Z,5.12
2019-03-09T20:02:40.774Z,3.35
2019-03-09T20:05:09.675Z,3.33
2019-03-09T20:07:38.110Z,7.08
2019-03-09T20:10:08.077Z,3.33
2019-03-09T20:12:36.518Z,4.12
2019-03-09T20:15:06.498Z,4.70
2019-03-09T20:17:34.923Z,3.47
2019-03-09T20:20:04.789Z,3.70
2019-03-09T20:22:33.288Z,3.80
2019-03-09T20:25:01.723Z,3.42
2019-03-09T20:27:31.940Z,3.17
2019-03-09T20:30:00.441Z,2.62
2019-03-09T20:32:28.869Z,3.80
2019-03-09T20:34:57.309Z,3.22
2019-03-09T20:37:25.753Z,3.10
2019-03-09T20:39:54.189Z,2.50
2019-03-09T20:42:22.621Z,3.05
2019-03-09T20:44:51.049Z,3.08
2019-03-09T20:47:19.481Z,2.62
2019-03-09T20:49:47.922Z,2.20
2019-03-09T20:52:16.357Z,2.83
2019-03-09T20:54:44.788Z,2.30
2019-03-09T20:57:13.306Z,2.33
2019-03-09T20:59:41.737Z,3.55
2019-03-09T21:02:10.178Z,2.47
2019-03-09T21:04:38.633Z,2.72
2019-03-09T21:07:07.057Z,2.75
2019-03-09T21:09:35.479Z,1.75
2019-03-09T21:12:03.982Z,2.72
2019-03-09T21:14:33.901Z,2.65
2019-03-09T21:17:02.382Z,2.45
2019-03-09T21:19:30.906Z,2.87
2019-03-09T21:21:59.342Z,3.47
2019-03-09T21:24:27.818Z,3.27
2019-03-09T21:26:56.326Z,3.47
2019-03-09T21:29:26.034Z,2.10
2019-03-09T21:31:54.471Z,2.92
2019-03-09T21:34:22.950Z,3.65
2019-03-09T21:36:51.398Z,3.67
2019-03-09T21:39:19.836Z,3.17
2019-03-09T21:41:48.346Z,3.80
2019-03-09T21:44:16.805Z,2.85
2019-03-09T21:46:45.593Z,2.33
2019-03-09T21:49:14.130Z,2.80
2019-03-09T21:51:42.542Z,3.58
2019-03-09T21:54:12.255Z,3.65
2019-03-09T21:56:41.670Z,4.45
2019-03-09T21:59:10.107Z,3.87
2019-03-09T22:01:38.906Z,3.20
2019-03-09T22:04:07.338Z,3.25
2019-03-09T22:06:35.762Z,2.58
2019-03-09T22:09:04.982Z,3.50
2019-03-09T22:11:35.003Z,3.00
2019-03-09T22:14:03.467Z,2.85
2019-03-09T22:16:31.869Z,3.40
2019-03-09T22:19:00.337Z,2.72
2019-03-09T22:21:28.767Z,2.55
2019-03-09T22:23:58.065Z,3.20
2019-03-09T22:26:26.499Z,2.47
2019-03-09T22:28:54.930Z,2.42
2019-03-09T22:31:23.374Z,3.10
2019-03-09T22:33:51.810Z,3.33
2019-03-09T22:36:20.235Z,3.35
2019-03-09T22:38:48.673Z,3.20
2019-03-09T22:41:17.118Z,3.92
2019-03-09T22:43:45.554Z,2.70
2019-03-09T22:46:13.997Z,2.92
2019-03-09T22:48:42.439Z,2.60
2019-03-09T22:51:10.857Z,2.55
2019-03-09T22:53:39.299Z,2.55
2019-03-09T22:56:07.722Z,2.75
2019-03-09T22:58:36.160Z,2.65
2019-03-09T23:01:04.585Z,2.95
2019-03-09T23:03:33.301Z,2.02
2019-03-09T23:06:01.745Z,2.33
2019-03-09T23:08:30.253Z,3.10
2019-03-09T23:10:58.682Z,2.47
2019-03-09T23:13:27.115Z,2.33
2019-03-09T23:15:55.549Z,2.37
2019-03-09T23:18:23.992Z,3.22
2019-03-09T23:20:52.426Z,2.40
2019-03-09T23:23:20.862Z,3.12
2019-03-09T23:25:49.418Z,2.62
2019-03-09T23:28:17.853Z,8.35
2019-03-09T23:30:46.285Z,3.52
2019-03-09T23:33:14.728Z,2.90
2019-03-09T23:35:43.162Z,3.02
2019-03-09T23:38:11.587Z,3.05
2019-03-09T23:40:40.018Z,3.20
2019-03-09T23:43:08.451Z,2.30
2019-03-09T23:45:36.893Z,3.05
2019-03-09T23:48:05.327Z,3.00
2019-03-09T23:50:33.813Z,2.20
2019-03-09T23:53:02.482Z,2.58
2019-03-09T23:55:30.911Z,2.33
2019-03-09T23:57:59.353Z,2.52
